Terminal Aerodrome Forecast
Issued by NWS

Home | Current Version | Previous Version | Text Only | Print | Product List | Glossary Off
Versions: 1 2 3 4 5 6 7 8 9 10 11 12 13 14 15 16 17 18 19 20 21

000
FTUS43 KICT 290303 AAB
TAFSLN
TAF AMD
KSLN 290303Z 2903/2924 03014KT 4SM -TSRA OVC014CB
      TEMPO 2903/2907 2SM TSRA OVC008CB
     FM290700 06018G25KT 5SM -TSRA OVC008CB
     FM291800 03016G24KT P6SM VCSH OVC018=

USA.gov is the U.S. government's official web portal to all federal, state and local government web resources and services.